No particular awareness of the weather is required.    There are no Weather-warnings


Meteo18 Weather Cam more information Meteo18 Weather Cam


Thunder radar more information blitzortung!


Rain radar more information rain snow radar


Visit our other weather sites:

Template documentation
and downloads

And another site



Weather Underground History page Text

Daily Summary for May 26, 2016 Units:  Metric    English   Both
« Previous Day
Next Day »
Daily Weekly Monthly Yearly Custom
  High: Low: Average:
Temperature: 21.7 °C 9.4 °C 14.3 °C
Dew Point: 17.6 °C 8.8 °C 12.8 °C
Humidity: 98 % 77 % 91 %
Wind Speed: 4.8 km/h 0.0 km/h 0.1 km/h
Wind Gust: 8.0 km/h - -
Wind:- - WNW
Pressure: 1013.4 hPa 1012.1 hPa -
Precipitation: 0.3 mm    
Historical Graphs
 
 
Tabular Data for May 26, 2016
Time Temperature Dew Point Pressure Wind Wind Speed Wind Gust Humidity Rainfall Rate (Hourly)
00:02 13.4 °C 12.1 °C 1012.4 hPa Calm     92 % 0.0 mm
00:07 13.3 °C 12.2 °C 1012.4 hPa Calm     93 % 0.0 mm
00:17 13.3 °C 12.2 °C 1012.4 hPa Calm     93 % 0.0 mm
00:22 13.3 °C 12.2 °C 1012.4 hPa Calm     93 % 0.0 mm
00:32 13.3 °C 12.2 °C 1012.4 hPa Calm     93 % 0.0 mm
00:42 13.3 °C 12.2 °C 1012.1 hPa Calm     93 % 0.0 mm
00:47 13.3 °C 12.2 °C 1012.4 hPa Calm     93 % 0.0 mm
00:52 13.2 °C 12.1 °C 1012.4 hPa Calm     93 % 0.0 mm
00:57 13.1 °C 12.0 °C 1012.4 hPa Calm     93 % 0.0 mm
01:02 12.9 °C 11.8 °C 1012.4 hPa Calm     93 % 0.0 mm
01:07 12.7 °C 11.6 °C 1012.4 hPa Calm     93 % 0.0 mm
01:12 12.6 °C 11.5 °C 1012.4 hPa Calm     93 % 0.0 mm
01:17 12.4 °C 11.3 °C 1012.4 hPa Calm     93 % 0.0 mm
01:22 12.3 °C 11.2 °C 1012.4 hPa Calm     93 % 0.0 mm
01:27 12.2 °C 11.3 °C 1012.4 hPa Calm     94 % 0.0 mm
01:32 12.1 °C 11.0 °C 1012.4 hPa Calm     93 % 0.0 mm
01:42 11.9 °C 11.0 °C 1012.4 hPa Calm     94 % 0.0 mm
01:47 11.8 °C 10.9 °C 1012.4 hPa Calm     94 % 0.0 mm
01:52 11.8 °C 10.9 °C 1012.4 hPa Calm     94 % 0.0 mm
01:57 11.7 °C 10.8 °C 1012.4 hPa Calm     94 % 0.0 mm
02:02 11.7 °C 10.9 °C 1012.4 hPa Calm     95 % 0.0 mm
02:07 11.8 °C 11.0 °C 1012.4 hPa Calm     95 % 0.0 mm
02:12 11.6 °C 10.7 °C 1012.4 hPa Calm     94 % 0.0 mm
02:17 11.4 °C 10.6 °C 1012.1 hPa Calm     95 % 0.0 mm
02:22 11.2 °C 10.3 °C 1012.1 hPa Calm     94 % 0.0 mm
02:27 11.2 °C 10.4 °C 1012.1 hPa Calm     95 % 0.0 mm
02:32 11.2 °C 10.4 °C 1012.4 hPa Calm     95 % 0.0 mm
02:37 11.1 °C 10.3 °C 1012.4 hPa Calm     95 % 0.0 mm
02:42 11.1 °C 10.3 °C 1012.1 hPa Calm     95 % 0.0 mm
02:47 11.1 °C 10.3 °C 1012.1 hPa Calm     95 % 0.0 mm
02:52 11.1 °C 10.3 °C 1012.1 hPa Calm     95 % 0.0 mm
02:57 11.1 °C 10.3 °C 1012.1 hPa Calm     95 % 0.0 mm
03:02 11.1 °C 10.3 °C 1012.1 hPa Calm     95 % 0.0 mm
03:07 11.1 °C 10.5 °C 1012.1 hPa Calm     96 % 0.0 mm
03:12 11.2 °C 10.6 °C 1012.1 hPa Calm     96 % 0.0 mm
03:17 11.2 °C 10.6 °C 1012.1 hPa Calm     96 % 0.0 mm
03:22 11.1 °C 10.5 °C 1012.1 hPa Calm     96 % 0.0 mm
03:27 11.1 °C 10.5 °C 1012.1 hPa Calm     96 % 0.0 mm
03:32 11.1 °C 10.5 °C 1012.1 hPa Calm     96 % 0.0 mm
03:37 10.9 °C 10.3 °C 1012.1 hPa Calm     96 % 0.0 mm
03:42 10.9 °C 10.3 °C 1012.1 hPa Calm     96 % 0.0 mm
03:47 10.9 °C 10.3 °C 1012.1 hPa Calm     96 % 0.0 mm
03:52 10.9 °C 10.3 °C 1012.4 hPa Calm     96 % 0.0 mm
03:57 10.8 °C 10.2 °C 1012.4 hPa Calm     96 % 0.0 mm
04:02 10.8 °C 10.2 °C 1012.1 hPa Calm     96 % 0.0 mm
04:07 10.8 °C 10.2 °C 1012.1 hPa Calm     96 % 0.0 mm
04:12 10.7 °C 10.1 °C 1012.1 hPa Calm     96 % 0.0 mm
04:17 10.7 °C 10.1 °C 1012.1 hPa Calm     96 % 0.0 mm
04:22 10.7 °C 10.1 °C 1012.1 hPa Calm     96 % 0.0 mm
04:27 10.6 °C 10.0 °C 1012.4 hPa Calm     96 % 0.0 mm
04:32 10.5 °C 9.9 °C 1012.4 hPa Calm     96 % 0.0 mm
04:37 10.3 °C 9.7 °C 1012.1 hPa Calm     96 % 0.0 mm
04:42 10.3 °C 9.7 °C 1012.1 hPa Calm     96 % 0.0 mm
04:47 10.2 °C 9.6 °C 1012.1 hPa Calm     96 % 0.0 mm
04:52 10.2 °C 9.6 °C 1012.4 hPa Calm     96 % 0.0 mm
04:57 10.4 °C 9.9 °C 1012.4 hPa Calm     97 % 0.0 mm
05:02 10.4 °C 9.8 °C 1012.4 hPa Calm     96 % 0.0 mm
05:12 10.1 °C 9.5 °C 1012.4 hPa Calm     96 % 0.0 mm
05:17 9.8 °C 9.2 °C 1012.4 hPa Calm     96 % 0.0 mm
05:22 9.7 °C 9.1 °C 1012.4 hPa Calm     96 % 0.0 mm
05:32 9.6 °C 9.0 °C 1012.4 hPa Calm     96 % 0.0 mm
05:37 9.4 °C 8.8 °C 1012.4 hPa Calm     96 % 0.0 mm
05:42 9.4 °C 8.8 °C 1012.4 hPa Calm     96 % 0.0 mm
05:47 9.6 °C 9.1 °C 1012.4 hPa Calm     97 % 0.0 mm
05:52 9.7 °C 9.2 °C 1012.4 hPa Calm     97 % 0.0 mm
06:02 9.6 °C 9.1 °C 1012.4 hPa Calm     97 % 0.0 mm
06:12 9.5 °C 9.0 °C 1012.4 hPa Calm     97 % 0.0 mm
06:17 9.4 °C 8.8 °C 1012.4 hPa Calm     96 % 0.0 mm
06:22 9.4 °C 8.9 °C 1012.4 hPa Calm     97 % 0.0 mm
06:27 9.4 °C 8.9 °C 1012.8 hPa Calm     97 % 0.0 mm
06:32 9.4 °C 8.9 °C 1012.4 hPa Calm     97 % 0.0 mm
06:42 9.4 °C 8.9 °C 1012.4 hPa Calm     97 % 0.0 mm
06:52 9.6 °C 9.1 °C 1012.4 hPa Calm     97 % 0.0 mm
06:57 9.6 °C 9.1 °C 1012.8 hPa Calm     97 % 0.0 mm
07:02 9.6 °C 9.1 °C 1012.8 hPa Calm     97 % 0.0 mm
07:12 9.7 °C 9.2 °C 1012.8 hPa Calm     97 % 0.0 mm
07:17 10.1 °C 9.6 °C 1012.8 hPa Calm     97 % 0.0 mm
07:32 11.2 °C 10.9 °C 1012.8 hPa Calm     98 % 0.0 mm
07:37 11.6 °C 11.3 °C 1012.8 hPa Calm     98 % 0.0 mm
07:42 11.8 °C 11.5 °C 1012.8 hPa Calm     98 % 0.0 mm
07:47 11.9 °C 11.6 °C 1012.8 hPa Calm     98 % 0.0 mm
07:52 12.2 °C 11.9 °C 1012.8 hPa Calm     98 % 0.0 mm
08:02 12.7 °C 12.4 °C 1012.8 hPa Calm     98 % 0.0 mm
08:12 13.0 °C 12.7 °C 1012.8 hPa Calm     98 % 0.0 mm
08:22 13.3 °C 13.0 °C 1012.8 hPa Calm     98 % 0.0 mm
08:27 13.4 °C 12.9 °C 1012.8 hPa Calm     97 % 0.0 mm
08:32 13.5 °C 13.0 °C 1012.8 hPa Calm     97 % 0.0 mm
08:37 13.6 °C 13.1 °C 1012.8 hPa Calm     97 % 0.0 mm
08:42 13.7 °C 13.2 °C 1013.1 hPa Calm     97 % 0.0 mm
08:47 13.8 °C 13.3 °C 1013.1 hPa Calm     97 % 0.0 mm
08:52 13.9 °C 13.4 °C 1013.1 hPa Calm     97 % 0.0 mm
08:57 14.1 °C 13.6 °C 1013.1 hPa Calm     97 % 0.0 mm
09:02 14.3 °C 13.7 °C 1013.1 hPa Calm     96 % 0.0 mm
09:07 14.6 °C 14.0 °C 1013.1 hPa Calm     96 % 0.0 mm
09:17 15.1 °C 14.1 °C 1013.1 hPa Calm     94 % 0.0 mm
09:27 15.3 °C 14.2 °C 1013.1 hPa Calm   1.6 km/h 93 % 0.0 mm
09:42 15.7 °C 14.6 °C 1013.1 hPa Calm   3.2 km/h 93 % 0.0 mm
09:47 15.8 °C 14.5 °C 1013.1 hPa Calm   1.6 km/h 92 % 0.0 mm
09:52 15.9 °C 14.6 °C 1013.4 hPa Calm     92 % 0.0 mm
10:02 16.7 °C 15.4 °C 1013.4 hPa Calm   3.2 km/h 92 % 0.0 mm
10:12 17.0 °C 15.0 °C 1013.4 hPa Calm   4.8 km/h 88 % 0.0 mm
10:17 17.2 °C 15.0 °C 1013.4 hPa Calm   4.8 km/h 87 % 0.0 mm
10:27 17.4 °C 15.2 °C 1013.1 hPa Calm   3.2 km/h 87 % 0.0 mm
10:32 17.6 °C 15.2 °C 1013.4 hPa NW 1.6 km/h 1.6 km/h 86 % 0.0 mm
10:42 17.4 °C 15.0 °C 1013.1 hPa Calm   3.2 km/h 86 % 0.0 mm
10:47 17.2 °C 15.0 °C 1013.1 hPa Calm   3.2 km/h 87 % 0.0 mm
10:57 17.1 °C 14.9 °C 1013.1 hPa Calm     87 % 0.0 mm
11:02 17.0 °C 14.8 °C 1013.1 hPa Calm     87 % 0.0 mm
11:07 16.9 °C 14.9 °C 1013.4 hPa Calm   1.6 km/h 88 % 0.0 mm
11:12 16.8 °C 14.8 °C 1013.1 hPa Calm   1.6 km/h 88 % 0.0 mm
11:22 16.8 °C 15.0 °C 1013.1 hPa Calm   3.2 km/h 89 % 0.0 mm
11:32 16.9 °C 15.1 °C 1013.1 hPa Calm   1.6 km/h 89 % 0.0 mm
11:37 16.8 °C 14.6 °C 1013.1 hPa Calm     87 % 0.0 mm
11:42 16.9 °C 15.1 °C 1013.1 hPa Calm     89 % 0.0 mm
11:52 17.0 °C 15.2 °C 1013.1 hPa Calm   1.6 km/h 89 % 0.3 mm
11:57 17.1 °C 15.4 °C 1013.1 hPa Calm   1.6 km/h 90 % 0.3 mm
12:02 17.2 °C 15.4 °C 1013.1 hPa Calm   1.6 km/h 89 % 0.3 mm
12:12 17.3 °C 15.5 °C 1012.8 hPa Calm   1.6 km/h 89 % 0.3 mm
12:17 17.6 °C 15.9 °C 1012.8 hPa Calm   1.6 km/h 90 % 0.3 mm
12:27 18.0 °C 15.4 °C 1012.8 hPa Calm   1.6 km/h 85 % 0.3 mm
12:34 18.1 °C 15.5 °C 1012.8 hPa Calm   3.2 km/h 85 % 0.3 mm
12:42 19.1 °C 16.3 °C 1013.1 hPa Calm   1.6 km/h 84 % 0.3 mm
12:52 20.2 °C 16.0 °C 1013.1 hPa Calm   1.6 km/h 77 % 0.0 mm
12:57 20.3 °C 17.1 °C 1013.1 hPa Calm   4.8 km/h 82 % 0.0 mm
13:02 20.8 °C 17.6 °C 1013.1 hPa Calm   4.8 km/h 82 % 0.0 mm
13:07 20.9 °C 16.7 °C 1013.4 hPa WNW 1.6 km/h 6.4 km/h 77 % 0.0 mm
13:27 20.3 °C 16.7 °C 1013.4 hPa Calm   4.8 km/h 80 % 0.0 mm
13:37 20.2 °C 16.8 °C 1013.4 hPa West 3.2 km/h 6.4 km/h 81 % 0.0 mm
13:42 20.2 °C 16.8 °C 1013.4 hPa Calm   6.4 km/h 81 % 0.0 mm
13:47 19.9 °C 16.5 °C 1013.4 hPa WNW 4.8 km/h 6.4 km/h 81 % 0.0 mm
13:52 19.6 °C 16.4 °C 1013.4 hPa NW 1.6 km/h 6.4 km/h 82 % 0.0 mm
13:57 19.8 °C 17.0 °C 1013.4 hPa Calm   6.4 km/h 84 % 0.0 mm
14:02 19.9 °C 17.1 °C 1013.4 hPa WSW 1.6 km/h 4.8 km/h 84 % 0.0 mm
14:12 20.1 °C 16.9 °C 1013.4 hPa Calm   3.2 km/h 82 % 0.0 mm
14:17 19.8 °C 16.6 °C 1013.1 hPa Calm   8.0 km/h 82 % 0.0 mm
14:22 19.8 °C 16.6 °C 1013.1 hPa Calm   8.0 km/h 82 % 0.0 mm
14:32 19.8 °C 16.6 °C 1013.1 hPa Calm   3.2 km/h 82 % 0.0 mm
14:37 19.7 °C 16.7 °C 1013.1 hPa Calm   3.2 km/h 83 % 0.0 mm
14:42 19.6 °C 16.4 °C 1013.1 hPa Calm   1.6 km/h 82 % 0.0 mm
14:47 19.5 °C 16.2 °C 1013.1 hPa Calm   1.6 km/h 81 % 0.0 mm
14:52 19.3 °C 16.3 °C 1013.1 hPa Calm   1.6 km/h 83 % 0.0 mm
15:02 19.2 °C 16.2 °C 1012.8 hPa Calm   1.6 km/h 83 % 0.0 mm
15:07 19.1 °C 16.3 °C 1012.8 hPa Calm   1.6 km/h 84 % 0.0 mm
15:12 18.9 °C 16.1 °C 1012.8 hPa Calm   1.6 km/h 84 % 0.0 mm
15:17 18.8 °C 16.4 °C 1012.4 hPa Calm   1.6 km/h 86 % 0.0 mm
15:22 18.8 °C 16.4 °C 1012.4 hPa Calm   1.6 km/h 86 % 0.0 mm
15:27 18.7 °C 16.3 °C 1012.4 hPa Calm   1.6 km/h 86 % 0.0 mm
15:32 18.8 °C 16.8 °C 1012.8 hPa Calm   1.6 km/h 88 % 0.0 mm
15:37 19.1 °C 17.2 °C 1012.4 hPa Calm   1.6 km/h 89 % 0.0 mm
15:42 19.3 °C 16.7 °C 1012.4 hPa Calm   3.2 km/h 85 % 0.0 mm
15:47 19.6 °C 16.6 °C 1012.4 hPa Calm   3.2 km/h 83 % 0.0 mm
15:52 19.7 °C 16.3 °C 1012.1 hPa Calm   3.2 km/h 81 % 0.0 mm
15:57 19.8 °C 16.2 °C 1012.4 hPa Calm   3.2 km/h 80 % 0.0 mm
16:02 19.9 °C 16.1 °C 1012.1 hPa Calm   3.2 km/h 79 % 0.0 mm
16:07 20.1 °C 16.5 °C 1012.1 hPa Calm   3.2 km/h 80 % 0.0 mm
16:12 20.3 °C 16.5 °C 1012.4 hPa Calm   3.2 km/h 79 % 0.0 mm
16:17 21.1 °C 17.1 °C 1012.4 hPa WSW 3.2 km/h 3.2 km/h 78 % 0.0 mm
16:22 21.7 °C 17.5 °C 1012.1 hPa Calm   3.2 km/h 77 % 0.0 mm
Meteo18
Compliments of Weather Underground - 4 mb

Script developed by  Jim McMurry - jmcmurry@mwt.net Adapted for the template by  Wim van der Kuil - Leuven-Template.eu

You find our weather info also at:

European Weather Network

Weather Underground

Equipment we use:

Weather-station
Davis Vue

Weather-program
Meteohub

Weather-server
Raspberry PI 2 B+

Provider
1 and 1

Davis Vue

Meteohub

Raspberry PI 2 B+

1 and 1